createdAt,value
2023-05-19T00:01:25.212Z,102895.38
2023-05-19T00:03:59.196Z,102898.16
2023-05-19T00:06:29.396Z,102901.38
2023-05-19T00:09:04.817Z,102891.75
2023-05-19T00:11:32.277Z,102892.38
2023-05-19T00:14:00.824Z,102893.03
2023-05-19T00:16:29.742Z,102895.78
2023-05-19T00:19:00.895Z,102899.94
2023-05-19T00:21:28.734Z,102893.97
2023-05-19T00:23:56.388Z,102898.53
2023-05-19T00:26:24.447Z,102895.91
2023-05-19T00:28:51.504Z,102892.34
2023-05-19T00:31:18.596Z,102892.78
2023-05-19T00:33:45.998Z,102897.78
2023-05-19T00:36:13.554Z,102889.78
2023-05-19T00:38:40.719Z,102884.41
2023-05-19T00:41:08.005Z,102899.28
2023-05-19T00:43:35.050Z,102899.47
2023-05-19T00:46:02.613Z,102896.81
2023-05-19T00:48:29.785Z,102900.69
2023-05-19T00:51:02.584Z,102897.09
2023-05-19T00:53:30.549Z,102893.97
2023-05-19T00:55:58.754Z,102886.88
2023-05-19T00:58:29.391Z,102888.06
2023-05-19T01:01:03.695Z,102891.97
2023-05-19T01:03:36.365Z,102889.94
2023-05-19T01:06:08.102Z,102889.19
2023-05-19T01:08:37.727Z,102879.56
2023-05-19T01:11:08.470Z,102880.22
2023-05-19T01:13:37.162Z,102882.97
2023-05-19T01:16:12.694Z,102888.94
2023-05-19T01:19:13.239Z,102890.09
2023-05-19T01:21:46.276Z,102890.84
2023-05-19T01:24:51.100Z,102889.88
2023-05-19T01:27:36.483Z,102892.34
2023-05-19T01:30:23.905Z,102899.16
2023-05-19T01:32:54.823Z,102897.34
2023-05-19T01:35:25.137Z,102892.06
2023-05-19T01:37:56.646Z,102885.59
2023-05-19T01:40:25.589Z,102888.44
2023-05-19T01:42:55.589Z,102882.38
2023-05-19T01:45:24.891Z,102880.78
2023-05-19T01:47:58.196Z,102879.00
2023-05-19T01:50:26.200Z,102878.28
2023-05-19T01:52:53.929Z,102883.56
2023-05-19T01:55:23.468Z,102889.97
2023-05-19T01:58:41.457Z,102893.09
2023-05-19T02:01:33.268Z,102886.56
2023-05-19T02:04:54.754Z,102886.50
2023-05-19T02:07:32.686Z,102886.94
2023-05-19T02:10:10.553Z,102885.00
2023-05-19T02:12:41.128Z,102886.63
2023-05-19T02:15:11.857Z,102886.63
2023-05-19T02:17:41.811Z,102891.88
2023-05-19T02:20:10.012Z,102886.03
2023-05-19T02:22:37.211Z,102886.94
2023-05-19T02:25:04.694Z,102886.31
2023-05-19T02:27:31.790Z,102888.31
2023-05-19T02:29:58.942Z,102884.75
2023-05-19T02:32:26.067Z,102893.63
2023-05-19T02:34:53.448Z,102893.72
2023-05-19T02:37:23.947Z,102888.81
2023-05-19T02:39:51.328Z,102890.84
2023-05-19T02:42:18.505Z,102893.00
2023-05-19T02:44:45.602Z,102890.75
2023-05-19T02:47:13.463Z,102891.78
2023-05-19T02:49:41.241Z,102888.19
2023-05-19T02:52:08.295Z,102888.72
2023-05-19T02:54:35.594Z,102888.34
2023-05-19T02:57:02.701Z,102879.56
2023-05-19T02:59:29.829Z,102880.41
2023-05-19T03:02:00.574Z,102883.25
2023-05-19T03:04:28.366Z,102884.25
2023-05-19T03:06:55.634Z,102886.06
2023-05-19T03:09:22.700Z,102886.06
2023-05-19T03:11:49.769Z,102879.31
2023-05-19T03:14:16.796Z,102880.16
2023-05-19T03:16:44.000Z,102876.00
2023-05-19T03:19:11.207Z,102869.72
2023-05-19T03:21:38.329Z,102870.72
2023-05-19T03:24:05.793Z,102869.09
2023-05-19T03:26:32.887Z,102871.66
2023-05-19T03:28:59.940Z,102876.16
2023-05-19T03:31:27.079Z,102873.41
2023-05-19T03:33:54.087Z,102876.16
2023-05-19T03:36:22.226Z,102873.28
2023-05-19T03:38:49.487Z,102873.47
2023-05-19T03:41:16.593Z,102869.47
2023-05-19T03:43:43.698Z,102867.28
2023-05-19T03:46:10.752Z,102874.34
2023-05-19T03:48:37.823Z,102877.03
2023-05-19T03:51:04.901Z,102876.38
2023-05-19T03:53:31.948Z,102878.94
2023-05-19T03:55:59.641Z,102872.94
2023-05-19T03:58:27.030Z,102878.06
2023-05-19T04:00:54.046Z,102883.38
2023-05-19T04:03:21.372Z,102884.25
2023-05-19T04:05:48.551Z,102883.53
2023-05-19T04:08:15.903Z,102881.66
2023-05-19T04:10:42.974Z,102887.09
2023-05-19T04:13:10.060Z,102882.38
2023-05-19T04:15:37.229Z,102885.84
2023-05-19T04:18:04.327Z,102879.88
2023-05-19T04:20:31.612Z,102881.00
2023-05-19T04:22:58.740Z,102884.47
2023-05-19T04:25:25.873Z,102883.72
2023-05-19T04:27:53.131Z,102883.69
2023-05-19T04:30:22.801Z,102879.97
2023-05-19T04:32:51.156Z,102886.00
2023-05-19T04:35:18.236Z,102888.63
2023-05-19T04:37:48.690Z,102890.16
2023-05-19T04:40:16.136Z,102886.84
2023-05-19T04:42:46.034Z,102873.81
2023-05-19T04:45:14.290Z,102884.13
2023-05-19T04:47:42.083Z,102885.00
2023-05-19T04:50:11.245Z,102877.91
2023-05-19T04:52:38.312Z,102881.09
2023-05-19T04:55:05.841Z,102877.66
2023-05-19T04:57:32.851Z,102881.31
2023-05-19T05:00:02.720Z,102884.00
2023-05-19T05:02:29.834Z,102881.97
2023-05-19T05:04:56.927Z,102885.53
2023-05-19T05:07:24.125Z,102887.41
2023-05-19T05:09:51.412Z,102889.84
2023-05-19T05:12:19.411Z,102884.41
2023-05-19T05:14:46.772Z,102889.69
2023-05-19T05:17:14.295Z,102890.72
2023-05-19T05:19:41.632Z,102890.28
2023-05-19T05:22:08.972Z,102892.91
2023-05-19T05:24:36.582Z,102891.38
2023-05-19T05:27:04.141Z,102893.78
2023-05-19T05:29:31.272Z,102892.72
2023-05-19T05:31:58.370Z,102895.03
2023-05-19T05:34:25.550Z,102897.28
2023-05-19T05:36:52.647Z,102895.03
2023-05-19T05:39:20.052Z,102891.25
2023-05-19T05:41:47.448Z,102889.13
2023-05-19T05:44:14.507Z,102889.56
2023-05-19T05:46:41.957Z,102889.44
2023-05-19T05:49:09.313Z,102888.41
2023-05-19T05:51:36.784Z,102888.00
2023-05-19T05:54:06.913Z,102893.19
2023-05-19T05:56:34.485Z,102893.88
2023-05-19T05:59:02.353Z,102890.34
2023-05-19T06:01:32.174Z,102900.66
2023-05-19T06:04:00.760Z,102890.84
2023-05-19T06:06:27.990Z,102889.59
2023-05-19T06:08:55.050Z,102886.56
2023-05-19T06:11:22.120Z,102883.75
2023-05-19T06:13:49.275Z,102881.13
2023-05-19T06:16:16.711Z,102881.75
2023-05-19T06:18:43.850Z,102889.94
2023-05-19T06:21:13.634Z,102892.47
2023-05-19T06:23:41.190Z,102892.47
2023-05-19T06:26:08.310Z,102877.84
2023-05-19T06:28:35.415Z,102881.91
2023-05-19T06:31:02.522Z,102881.56
2023-05-19T06:33:29.805Z,102890.63
2023-05-19T06:35:56.862Z,102882.38
2023-05-19T06:38:24.010Z,102889.75
2023-05-19T06:40:51.081Z,102886.91
2023-05-19T06:43:18.192Z,102890.38
2023-05-19T06:45:45.224Z,102891.09
2023-05-19T06:48:12.294Z,102889.72
2023-05-19T06:50:39.361Z,102895.63
2023-05-19T06:53:06.496Z,102889.28
2023-05-19T06:55:34.449Z,102884.63
2023-05-19T06:58:04.182Z,102899.41
2023-05-19T07:00:31.312Z,102893.75
2023-05-19T07:02:58.498Z,102894.47
2023-05-19T07:05:25.815Z,102898.53
2023-05-19T07:07:52.856Z,102903.34
2023-05-19T07:10:21.593Z,102895.97
2023-05-19T07:12:48.628Z,102898.41
2023-05-19T07:15:15.806Z,102898.53
2023-05-19T07:17:42.895Z,102893.16
2023-05-19T07:20:10.553Z,102895.63
2023-05-19T07:22:38.796Z,102887.31
2023-05-19T07:25:07.373Z,102885.94
2023-05-19T07:27:34.520Z,102883.06
2023-05-19T07:30:01.611Z,102883.59
2023-05-19T07:32:28.771Z,102888.72
2023-05-19T07:34:55.993Z,102879.00
2023-05-19T07:37:23.055Z,102874.31
2023-05-19T07:39:50.093Z,102878.41
2023-05-19T07:42:17.180Z,102877.38
2023-05-19T07:44:44.294Z,102878.91
2023-05-19T07:47:11.296Z,102875.91
2023-05-19T07:49:38.395Z,102885.97
2023-05-19T07:52:05.658Z,102876.78
2023-05-19T07:54:32.699Z,102873.94
2023-05-19T07:56:59.698Z,102875.38
2023-05-19T07:59:26.746Z,102868.09
2023-05-19T08:01:53.847Z,102870.13
2023-05-19T08:04:21.156Z,102872.75
2023-05-19T08:06:48.195Z,102869.84
2023-05-19T08:09:15.203Z,102860.50
2023-05-19T08:11:42.259Z,102863.22
2023-05-19T08:14:09.370Z,102861.19
2023-05-19T08:16:36.529Z,102860.72
2023-05-19T08:19:05.609Z,102861.41
2023-05-19T08:21:35.737Z,102860.22
2023-05-19T08:24:03.076Z,102866.25
2023-05-19T08:26:30.237Z,102866.09
2023-05-19T08:28:57.285Z,102859.16
2023-05-19T08:31:25.232Z,102859.41
2023-05-19T08:33:52.428Z,102861.78
2023-05-19T08:36:19.796Z,102856.84
2023-05-19T08:38:47.025Z,102855.47
2023-05-19T08:41:14.148Z,102859.84
2023-05-19T08:43:41.186Z,102850.59
2023-05-19T08:46:10.633Z,102847.66
2023-05-19T08:48:42.271Z,102847.59
2023-05-19T08:51:23.246Z,102839.34
2023-05-19T08:53:57.845Z,102838.50
2023-05-19T08:56:26.867Z,102840.47
2023-05-19T08:58:55.090Z,102827.22
2023-05-19T09:01:22.787Z,102824.81
2023-05-19T09:03:50.506Z,102821.81
2023-05-19T09:06:17.821Z,102820.53
2023-05-19T09:08:45.097Z,102820.72
2023-05-19T09:11:12.233Z,102816.44
2023-05-19T09:13:39.479Z,102820.38
2023-05-19T09:16:07.111Z,102808.91
2023-05-19T09:18:34.286Z,102813.63
2023-05-19T09:21:03.378Z,102807.28
2023-05-19T09:23:36.472Z,102816.03
2023-05-19T09:26:08.313Z,102810.69
2023-05-19T09:28:36.768Z,102807.84
2023-05-19T09:31:07.946Z,102803.53
2023-05-19T09:33:39.513Z,102801.09
2023-05-19T09:36:08.648Z,102797.66
2023-05-19T09:38:36.638Z,102795.09
2023-05-19T09:41:04.786Z,102797.03
2023-05-19T09:43:35.809Z,102790.63
2023-05-19T09:46:07.952Z,102790.19
2023-05-19T09:48:36.827Z,102795.16
2023-05-19T09:51:08.291Z,102784.38
2023-05-19T09:53:35.637Z,102791.44
2023-05-19T09:56:03.831Z,102775.72
2023-05-19T09:58:35.659Z,102772.25
2023-05-19T10:01:04.498Z,102779.19
2023-05-19T10:03:33.171Z,102756.66
2023-05-19T10:06:02.267Z,102764.59
2023-05-19T10:08:30.917Z,102758.75
2023-05-19T10:10:58.610Z,102757.41
2023-05-19T10:13:26.151Z,102756.06
2023-05-19T10:15:58.623Z,102756.31
2023-05-19T10:18:27.037Z,102745.38
2023-05-19T10:20:54.586Z,102741.72
2023-05-19T10:23:22.636Z,102754.94
2023-05-19T10:25:52.695Z,102738.75
2023-05-19T10:28:25.658Z,102742.06
2023-05-19T10:30:56.794Z,102744.09
2023-05-19T10:33:39.145Z,102738.78
2023-05-19T10:36:14.916Z,102748.28
2023-05-19T10:38:48.857Z,102746.69
2023-05-19T10:41:28.752Z,102743.19
2023-05-19T10:44:12.880Z,102739.56
2023-05-19T10:46:43.484Z,102733.56
2023-05-19T10:49:10.754Z,102741.25
2023-05-19T10:51:38.090Z,102737.84
2023-05-19T10:54:14.498Z,102732.84
2023-05-19T10:56:45.967Z,102722.03
2023-05-19T10:59:33.108Z,102717.88
2023-05-19T11:02:07.983Z,102718.78
2023-05-19T11:04:51.811Z,102721.28
2023-05-19T11:07:20.574Z,102717.31
2023-05-19T11:09:52.120Z,102718.81
2023-05-19T11:12:24.694Z,102721.06
2023-05-19T11:14:55.782Z,102716.00
2023-05-19T11:17:25.759Z,102714.56
2023-05-19T11:19:55.410Z,102716.94
2023-05-19T11:22:26.206Z,102714.06
2023-05-19T11:24:56.694Z,102720.94
2023-05-19T11:27:35.165Z,102713.13
2023-05-19T11:30:14.620Z,102707.78
2023-05-19T11:32:45.011Z,102706.25
2023-05-19T11:35:12.685Z,102706.00
2023-05-19T11:37:41.688Z,102704.94
2023-05-19T11:40:09.378Z,102710.53
2023-05-19T11:42:37.265Z,102714.59
2023-05-19T11:45:05.290Z,102709.06
2023-05-19T11:47:45.975Z,102710.66
2023-05-19T11:50:23.094Z,102710.34
2023-05-19T11:52:53.832Z,102696.75
2023-05-19T11:55:25.106Z,102699.16
2023-05-19T12:00:31.418Z,102694.75
2023-05-19T12:02:58.660Z,102703.75
2023-05-19T12:05:27.295Z,102694.81
2023-05-19T12:07:54.485Z,102692.53
2023-05-19T12:10:30.439Z,102692.38
2023-05-19T12:13:00.991Z,102696.19
2023-05-19T12:15:28.185Z,102690.75
2023-05-19T12:18:01.061Z,102685.69
2023-05-19T12:20:32.074Z,102678.94
2023-05-19T12:23:00.323Z,102696.59
2023-05-19T12:25:28.736Z,102685.38
2023-05-19T12:28:01.098Z,102680.22
2023-05-19T12:30:29.375Z,102680.16
2023-05-19T12:32:58.011Z,102680.94
2023-05-19T12:35:29.995Z,102666.59
2023-05-19T12:37:57.929Z,102662.97
2023-05-19T12:40:26.016Z,102659.53
2023-05-19T12:42:59.357Z,102668.22
2023-05-19T12:45:28.709Z,102662.53
2023-05-19T12:47:56.444Z,102664.06
2023-05-19T12:50:34.523Z,102668.00
2023-05-19T12:53:02.208Z,102661.06
2023-05-19T12:55:30.068Z,102664.41
2023-05-19T12:57:58.359Z,102664.84
2023-05-19T13:00:28.514Z,102659.34
2023-05-19T13:03:05.390Z,102662.75
2023-05-19T13:05:36.924Z,102656.63
2023-05-19T13:08:12.407Z,102660.75
2023-05-19T13:10:42.027Z,102668.38
2023-05-19T13:13:09.706Z,102660.09
2023-05-19T13:15:44.627Z,102658.25
2023-05-19T13:18:13.135Z,102646.91
2023-05-19T13:20:42.241Z,102642.41
2023-05-19T13:23:13.489Z,102646.13
2023-05-19T13:25:41.640Z,102646.00
2023-05-19T13:28:09.598Z,102649.97
2023-05-19T13:30:39.373Z,102638.25
2023-05-19T13:33:06.994Z,102632.25
2023-05-19T13:35:37.645Z,102625.28
2023-05-19T13:38:12.130Z,102632.41
2023-05-19T13:40:40.147Z,102626.03
2023-05-19T13:43:08.922Z,102624.34
2023-05-19T13:45:36.251Z,102627.13
2023-05-19T13:48:03.524Z,102626.78
2023-05-19T13:50:30.800Z,102622.28
2023-05-19T13:52:57.909Z,102626.69
2023-05-19T13:55:26.463Z,102628.78
2023-05-19T13:57:53.788Z,102618.63
2023-05-19T14:00:21.574Z,102620.00
2023-05-19T14:02:48.745Z,102618.69
2023-05-19T14:05:15.970Z,102615.16
2023-05-19T14:07:43.189Z,102615.91
2023-05-19T14:10:10.705Z,102615.66
2023-05-19T14:12:55.106Z,102614.19
2023-05-19T14:15:24.836Z,102612.25
2023-05-19T14:17:53.274Z,102608.56
2023-05-19T14:20:20.458Z,102609.94
2023-05-19T14:22:47.606Z,102601.44
2023-05-19T14:25:14.706Z,102612.00
2023-05-19T14:27:41.789Z,102603.09
2023-05-19T14:30:09.315Z,102598.19
2023-05-19T14:32:36.437Z,102593.00
2023-05-19T14:35:04.147Z,102601.38
2023-05-19T14:37:32.488Z,102594.56
2023-05-19T14:39:59.936Z,102589.47
2023-05-19T14:42:27.046Z,102594.22
2023-05-19T14:44:54.116Z,102598.00
2023-05-19T14:47:21.203Z,102595.25
2023-05-19T14:49:48.385Z,102603.56
2023-05-19T14:52:15.453Z,102598.81
2023-05-19T14:54:42.505Z,102593.28
2023-05-19T14:57:09.580Z,102590.66
2023-05-19T14:59:39.848Z,102591.34
2023-05-19T15:02:07.459Z,102600.28
2023-05-19T15:04:34.586Z,102594.16
2023-05-19T15:09:31.965Z,102598.44
2023-05-19T15:12:01.397Z,102595.50
2023-05-19T15:14:30.492Z,102597.13
2023-05-19T15:16:58.499Z,102597.75
2023-05-19T15:19:26.318Z,102595.69
2023-05-19T15:21:53.759Z,102594.50
2023-05-19T15:24:20.920Z,102588.88
2023-05-19T15:26:48.158Z,102592.38
2023-05-19T15:29:15.298Z,102584.72
2023-05-19T15:31:42.422Z,102580.59
2023-05-19T15:34:09.549Z,102580.09
2023-05-19T15:36:36.771Z,102580.72
2023-05-19T15:39:04.007Z,102577.34
2023-05-19T15:41:31.162Z,102579.66
2023-05-19T15:44:00.646Z,102581.00
2023-05-19T15:46:28.642Z,102583.56
2023-05-19T15:48:55.878Z,102584.31
2023-05-19T15:51:22.969Z,102582.56
2023-05-19T15:53:50.154Z,102587.94
2023-05-19T15:56:17.556Z,102587.09
2023-05-19T15:58:44.663Z,102594.19
2023-05-19T16:01:12.061Z,102577.09
2023-05-19T16:03:39.382Z,102577.44
2023-05-19T16:06:06.748Z,102584.22
2023-05-19T16:08:33.928Z,102588.22
2023-05-19T16:11:01.061Z,102583.44
2023-05-19T16:13:28.131Z,102581.34
2023-05-19T16:15:55.239Z,102572.59
2023-05-19T16:18:23.728Z,102573.31
2023-05-19T16:20:51.612Z,102572.59
2023-05-19T16:23:18.672Z,102568.16
2023-05-19T16:25:45.840Z,102565.03
2023-05-19T16:28:12.887Z,102558.13
2023-05-19T16:30:39.980Z,102556.50
2023-05-19T16:33:07.098Z,102554.06
2023-05-19T16:35:34.315Z,102557.38
2023-05-19T16:38:01.408Z,102554.41
2023-05-19T16:40:30.956Z,102555.59
2023-05-19T16:42:58.543Z,102559.06
2023-05-19T16:45:26.628Z,102561.03
2023-05-19T16:47:53.744Z,102562.19
2023-05-19T16:50:20.924Z,102555.84
2023-05-19T16:52:48.022Z,102555.00
2023-05-19T16:55:19.847Z,102560.75
2023-05-19T16:57:47.296Z,102564.28
2023-05-19T17:00:15.334Z,102564.06
2023-05-19T17:02:42.637Z,102565.00
2023-05-19T17:05:09.946Z,102566.72
2023-05-19T17:07:37.058Z,102575.47
2023-05-19T17:10:04.497Z,102567.28
2023-05-19T17:12:31.801Z,102563.84
2023-05-19T17:14:58.946Z,102570.78
2023-05-19T17:17:26.144Z,102576.63
2023-05-19T17:19:53.267Z,102573.44
2023-05-19T17:22:20.496Z,102569.66
2023-05-19T17:24:47.551Z,102567.19
2023-05-19T17:27:15.317Z,102574.44
2023-05-19T17:29:42.452Z,102574.44
2023-05-19T17:32:09.685Z,102567.22
2023-05-19T17:34:36.821Z,102574.06
2023-05-19T17:37:04.154Z,102575.41
2023-05-19T17:39:31.223Z,102566.66
2023-05-19T17:41:58.441Z,102575.06
2023-05-19T17:44:25.629Z,102583.72
2023-05-19T17:46:52.914Z,102582.25
2023-05-19T17:49:20.201Z,102579.03
2023-05-19T17:51:47.463Z,102581.00
2023-05-19T17:54:14.811Z,102580.47
2023-05-19T17:56:44.345Z,102582.31
2023-05-19T17:59:11.619Z,102588.16
2023-05-19T18:01:39.295Z,102589.47
2023-05-19T18:04:07.222Z,102588.84
2023-05-19T18:06:37.532Z,102586.16
2023-05-19T18:09:09.152Z,102587.97
2023-05-19T18:11:36.743Z,102585.75
2023-05-19T18:14:03.824Z,102573.56
2023-05-19T18:16:31.019Z,102586.84
2023-05-19T18:18:58.292Z,102585.69
2023-05-19T18:21:25.485Z,102588.06
2023-05-19T18:23:52.626Z,102588.63
2023-05-19T18:26:19.678Z,102598.22
2023-05-19T18:28:46.730Z,102599.28
2023-05-19T18:31:19.880Z,102588.19
2023-05-19T18:33:47.530Z,102594.00
2023-05-19T18:36:16.726Z,102600.75
2023-05-19T18:38:43.987Z,102604.41
2023-05-19T18:41:11.150Z,102599.25
2023-05-19T18:43:39.097Z,102607.84
2023-05-19T18:46:06.470Z,102601.00
2023-05-19T18:48:33.653Z,102607.75
2023-05-19T18:51:00.757Z,102605.41
2023-05-19T18:53:27.806Z,102608.31
2023-05-19T18:55:54.855Z,102608.97
2023-05-19T18:58:22.098Z,102613.91
2023-05-19T19:00:49.266Z,102604.50
2023-05-19T19:03:16.361Z,102607.34
2023-05-19T19:05:44.320Z,102608.72
2023-05-19T19:08:11.385Z,102612.59
2023-05-19T19:10:39.261Z,102619.13
2023-05-19T19:13:06.672Z,102623.16
2023-05-19T19:15:33.795Z,102617.19
2023-05-19T19:18:00.910Z,102624.44
2023-05-19T19:20:28.255Z,102623.78
2023-05-19T19:22:55.407Z,102632.97
2023-05-19T19:25:23.728Z,102633.09
2023-05-19T19:27:51.455Z,102638.66
2023-05-19T19:30:18.636Z,102641.63
2023-05-19T19:32:45.767Z,102642.69
2023-05-19T19:35:13.062Z,102645.28
2023-05-19T19:37:40.095Z,102652.66
2023-05-19T19:40:07.722Z,102649.97
2023-05-19T19:42:34.873Z,102649.97
2023-05-19T19:45:02.147Z,102651.56
2023-05-19T19:47:29.423Z,102655.53
2023-05-19T19:49:56.600Z,102664.59
2023-05-19T19:52:23.870Z,102663.84
2023-05-19T19:54:51.207Z,102670.06
2023-05-19T19:57:18.554Z,102666.72
2023-05-19T19:59:45.880Z,102668.84
2023-05-19T20:02:14.363Z,102676.88
2023-05-19T20:04:41.557Z,102673.53
2023-05-19T20:07:08.745Z,102685.19
2023-05-19T20:09:35.961Z,102687.97
2023-05-19T20:12:03.007Z,102688.94
2023-05-19T20:14:30.143Z,102698.00
2023-05-19T20:16:57.301Z,102689.31
2023-05-19T20:19:25.729Z,102687.91
2023-05-19T20:21:52.892Z,102681.06
2023-05-19T20:24:19.983Z,102677.72
2023-05-19T20:26:47.207Z,102681.63
2023-05-19T20:29:14.328Z,102681.09
2023-05-19T20:31:41.413Z,102682.78
2023-05-19T20:34:08.508Z,102682.91
2023-05-19T20:36:35.712Z,102690.91
2023-05-19T20:39:03.837Z,102687.41
2023-05-19T20:41:31.481Z,102691.97
2023-05-19T20:43:58.588Z,102697.41
2023-05-19T20:46:25.689Z,102689.44
2023-05-19T20:48:52.843Z,102692.41
2023-05-19T20:51:19.934Z,102693.38
2023-05-19T20:53:46.962Z,102697.94
2023-05-19T20:56:14.219Z,102698.25
2023-05-19T20:58:41.317Z,102694.72
2023-05-19T21:01:08.467Z,102702.94
2023-05-19T21:03:35.622Z,102696.84
2023-05-19T21:06:03.320Z,102696.25
2023-05-19T21:08:30.397Z,102692.16
2023-05-19T21:10:57.580Z,102695.03
2023-05-19T21:13:24.735Z,102694.34
2023-05-19T21:15:51.756Z,102698.94
2023-05-19T21:18:18.812Z,102686.53
2023-05-19T21:20:46.001Z,102687.50
2023-05-19T21:23:13.128Z,102686.94
2023-05-19T21:25:40.212Z,102697.88
2023-05-19T21:28:07.291Z,102697.25
2023-05-19T21:30:34.631Z,102697.25
2023-05-19T21:33:01.867Z,102698.94
2023-05-19T21:35:29.028Z,102704.34
2023-05-19T21:37:56.122Z,102699.41
2023-05-19T21:40:23.200Z,102704.09
2023-05-19T21:42:50.440Z,102699.78
2023-05-19T21:45:17.689Z,102711.59
2023-05-19T21:47:44.825Z,102709.88
2023-05-19T21:50:15.737Z,102704.72
2023-05-19T21:52:42.799Z,102717.28
2023-05-19T21:55:10.257Z,102709.97
2023-05-19T21:57:37.278Z,102719.69
2023-05-19T22:00:06.660Z,102719.88
2023-05-19T22:02:33.817Z,102717.50
2023-05-19T22:05:01.109Z,102722.91
2023-05-19T22:07:28.776Z,102721.03
2023-05-19T22:09:55.901Z,102716.34
2023-05-19T22:12:24.005Z,102718.16
2023-05-19T22:14:51.488Z,102714.72
2023-05-19T22:17:18.540Z,102707.06
2023-05-19T22:19:46.134Z,102715.97
2023-05-19T22:22:14.484Z,102711.09
2023-05-19T22:24:42.185Z,102717.28
2023-05-19T22:27:10.077Z,102716.31
2023-05-19T22:29:38.953Z,102712.88
2023-05-19T22:32:07.968Z,102718.13
2023-05-19T22:34:35.027Z,102716.50
2023-05-19T22:37:02.303Z,102715.66
2023-05-19T22:39:29.320Z,102721.16
2023-05-19T22:41:56.399Z,102719.34
2023-05-19T22:44:23.449Z,102715.81
2023-05-19T22:46:50.484Z,102710.31
2023-05-19T22:49:17.538Z,102724.59
2023-05-19T22:51:44.597Z,102718.31
2023-05-19T22:54:11.717Z,102718.59
2023-05-19T22:56:38.786Z,102716.88
2023-05-19T22:59:06.039Z,102708.00
2023-05-19T23:01:33.153Z,102716.09
2023-05-19T23:04:00.303Z,102713.72
2023-05-19T23:06:27.361Z,102715.34
2023-05-19T23:09:04.656Z,102717.81
2023-05-19T23:11:31.686Z,102720.75
2023-05-19T23:13:58.702Z,102712.94
2023-05-19T23:16:26.167Z,102707.69
2023-05-19T23:18:53.414Z,102714.91
2023-05-19T23:21:20.613Z,102716.97
2023-05-19T23:23:48.064Z,102716.97
2023-05-19T23:26:15.226Z,102722.47
2023-05-19T23:28:43.527Z,102717.16
2023-05-19T23:31:10.722Z,102717.31
2023-05-19T23:33:37.859Z,102712.78
2023-05-19T23:36:09.612Z,102717.25
2023-05-19T23:38:37.473Z,102713.13
2023-05-19T23:41:05.527Z,102724.91
2023-05-19T23:43:32.835Z,102716.91
2023-05-19T23:46:00.426Z,102722.19
2023-05-19T23:48:31.474Z,102720.38
2023-05-19T23:50:58.849Z,102726.56
2023-05-19T23:53:25.927Z,102724.06
2023-05-19T23:55:53.032Z,102719.09
2023-05-19T23:58:20.078Z,102727.94
